Time;durP1;ratioP1;P1;durP2;ratioP2;P2;SDS_P1;SDS_P2;PMS_P1;PMS_P2;Temp;Humidity;BMP_temperature;BMP_pressure;BME280_temperature;BME280_humidity;BME280_pressure;Samples;Min_cycle;Max_cycle;Signal;HPM_P1;HPM_P2
2022/04/05 00:00:18;;;;;;;0.63;0.63;;;7.10;99.90;;;;;;6197133;23;20017;-80
2022/04/05 00:02:44;;;;;;;3.75;0.60;;;7.10;99.90;;;;;;6188461;23;20099;-80
2022/04/05 00:05:10;;;;;;;1.90;0.50;;;7.10;99.90;;;;;;6213592;23;20321;-81
2022/04/05 00:07:35;;;;;;;2.20;0.68;;;7.10;99.90;;;;;;6187536;23;20039;-81
2022/04/05 00:10:01;;;;;;;2.80;0.57;;;7.10;99.90;;;;;;6213399;23;20078;-81
2022/04/05 00:12:26;;;;;;;2.25;0.57;;;7.10;99.90;;;;;;6213720;23;20016;-81
2022/04/05 00:14:52;;;;;;;0.63;0.63;;;7.00;99.90;;;;;;6161930;23;20021;-81
2022/04/05 00:17:18;;;;;;;3.10;0.70;;;7.10;99.90;;;;;;6186433;23;20457;-82
2022/04/05 00:19:44;;;;;;;11.38;1.23;;;7.00;99.90;;;;;;6161527;23;20378;-82
2022/04/05 00:22:10;;;;;;;4.05;0.85;;;7.00;99.90;;;;;;6186510;23;20047;-81
2022/04/05 00:24:35;;;;;;;2.95;0.70;;;7.00;99.90;;;;;;6186771;23;20016;-81
2022/04/05 00:27:01;;;;;;;7.88;1.00;;;7.00;99.90;;;;;;6186602;23;20023;-81
2022/04/05 00:29:26;;;;;;;3.20;0.88;;;7.00;99.90;;;;;;6186733;23;20021;-81
2022/04/05 00:31:52;;;;;;;5.75;0.88;;;7.00;99.90;;;;;;6161933;23;20083;-82
2022/04/05 00:34:18;;;;;;;5.03;0.80;;;6.90;99.90;;;;;;6186953;23;20063;-81
2022/04/05 00:36:44;;;;;;;1.85;0.95;;;7.00;99.90;;;;;;6187215;23;20013;-82
2022/04/05 00:39:10;;;;;;;4.15;0.80;;;6.90;99.90;;;;;;6162028;23;20043;-82
2022/04/05 00:41:36;;;;;;;2.13;0.70;;;7.00;99.90;;;;;;6162378;23;20450;-81
2022/04/05 00:44:02;;;;;;;2.63;1.02;;;7.00;99.90;;;;;;6162947;23;20008;-81
2022/04/05 00:46:28;;;;;;;5.70;1.55;;;6.90;99.90;;;;;;6162513;23;20008;-81
2022/04/05 00:48:57;;;;;;;2.03;1.17;;;6.90;99.90;;;;;;6162938;23;20021;-81
2022/04/05 00:51:23;;;;;;;1.45;0.80;;;6.90;99.90;;;;;;6186784;23;20016;-81
2022/04/05 00:53:52;;;;;;;1.52;0.75;;;6.90;99.90;;;;;;6187998;23;20016;-81
2022/04/05 00:56:19;;;;;;;2.22;0.90;;;6.90;99.90;;;;;;6187468;23;20048;-80
2022/04/05 00:58:52;;;;;;;2.70;1.17;;;6.90;99.90;;;;;;6162251;23;20019;-81
2022/04/05 01:01:20;;;;;;;6.50;1.40;;;6.90;99.90;;;;;;6186856;23;20063;-81
2022/04/05 01:03:50;;;;;;;2.72;1.00;;;6.90;99.90;;;;;;6187628;23;20063;-81
2022/04/05 01:06:25;;;;;;;1.85;1.13;;;6.90;99.90;;;;;;6187391;23;20068;-81
2022/04/05 01:08:50;;;;;;;2.00;0.93;;;6.80;99.90;;;;;;6187244;23;20059;-81
2022/04/05 01:11:16;;;;;;;4.65;1.45;;;6.80;99.90;;;;;;6162770;23;20013;-82
2022/04/05 01:13:43;;;;;;;3.20;1.38;;;6.80;99.90;;;;;;6187701;23;20016;-82
2022/04/05 01:16:10;;;;;;;3.53;1.05;;;6.80;99.90;;;;;;6214270;23;20063;-81
2022/04/05 01:18:36;;;;;;;4.95;1.17;;;6.80;99.90;;;;;;6214713;23;20013;-81
2022/04/05 01:21:02;;;;;;;4.47;1.35;;;6.80;99.90;;;;;;6188712;23;20349;-81
2022/04/05 01:23:28;;;;;;;3.40;1.30;;;6.80;99.90;;;;;;6188399;23;20016;-81
2022/04/05 01:25:53;;;;;;;2.95;1.08;;;6.80;99.90;;;;;;6189828;23;20390;-81
2022/04/05 01:28:20;;;;;;;3.42;0.80;;;6.80;99.90;;;;;;6190667;23;20517;-81
2022/04/05 01:30:45;;;;;;;2.83;1.08;;;6.80;99.90;;;;;;6164225;23;20012;-81
2022/04/05 01:33:11;;;;;;;4.60;1.30;;;6.70;99.90;;;;;;6189776;23;20088;-82
2022/04/05 01:35:37;;;;;;;3.47;0.90;;;6.70;99.90;;;;;;6189721;23;20017;-82
2022/04/05 01:38:07;;;;;;;1.77;0.80;;;6.70;99.90;;;;;;6166166;23;20062;-82
2022/04/05 01:40:33;;;;;;;4.90;0.93;;;6.70;99.90;;;;;;6164744;23;20012;-81
2022/04/05 01:42:59;;;;;;;4.82;0.90;;;6.70;99.90;;;;;;6165664;23;20331;-81
2022/04/05 01:45:25;;;;;;;2.58;0.55;;;6.70;99.90;;;;;;6164774;23;20020;-81
2022/04/05 01:47:50;;;;;;;4.65;0.88;;;6.70;99.90;;;;;;6165720;23;20016;-81
2022/04/05 01:50:16;;;;;;;1.05;0.88;;;6.60;99.90;;;;;;6165260;23;20341;-81
2022/04/05 01:52:42;;;;;;;3.10;0.77;;;6.60;99.90;;;;;;6217882;23;20091;-81
2022/04/05 01:55:08;;;;;;;2.65;1.33;;;6.60;99.90;;;;;;6190476;23;20039;-82
2022/04/05 01:57:34;;;;;;;1.90;0.60;;;6.60;99.90;;;;;;6190743;23;20032;-81
2022/04/05 02:00:01;;;;;;;3.40;0.80;;;6.60;99.90;;;;;;6189723;23;20013;-82
2022/04/05 02:02:27;;;;;;;2.92;1.10;;;6.60;99.90;;;;;;6188900;23;20345;-81
2022/04/05 02:04:52;;;;;;;5.20;1.58;;;6.60;99.90;;;;;;6187861;23;20092;-81
2022/04/05 02:07:19;;;;;;;3.33;1.00;;;6.60;99.90;;;;;;6187940;23;20468;-81
2022/04/05 02:09:49;;;;;;;2.33;0.70;;;6.60;99.90;;;;;;6163101;23;20017;-81
2022/04/05 02:12:16;;;;;;;4.45;1.42;;;6.60;99.90;;;;;;6188006;23;20020;-82
2022/04/05 02:14:42;;;;;;;1.67;0.80;;;6.60;99.90;;;;;;6163294;23;20390;-82
2022/04/05 02:17:09;;;;;;;1.25;0.50;;;6.60;99.90;;;;;;6162911;23;20013;-81
2022/04/05 02:19:36;;;;;;;0.98;0.60;;;6.60;99.90;;;;;;6162708;23;20452;-81
2022/04/05 02:22:02;;;;;;;0.88;0.55;;;6.60;99.90;;;;;;6191792;23;20079;-81
2022/04/05 02:24:28;;;;;;;3.05;0.93;;;6.60;99.90;;;;;;6191014;23;20036;-82
2022/04/05 02:26:54;;;;;;;1.25;0.73;;;6.60;99.90;;;;;;6191714;23;20020;-81
2022/04/05 02:29:19;;;;;;;1.52;0.77;;;6.60;99.90;;;;;;6191301;23;20023;-81
2022/04/05 02:31:45;;;;;;;4.10;1.25;;;6.60;99.90;;;;;;6190679;23;20008;-81
2022/04/05 02:34:10;;;;;;;4.43;1.10;;;6.50;99.90;;;;;;6190906;23;20523;-81
2022/04/05 02:36:36;;;;;;;1.90;0.80;;;6.50;99.90;;;;;;6165721;23;20017;-81
2022/04/05 02:39:03;;;;;;;1.63;0.85;;;6.50;99.90;;;;;;6191526;23;20013;-81
2022/04/05 02:41:28;;;;;;;2.75;0.90;;;6.50;99.90;;;;;;6166559;23;20068;-81
2022/04/05 02:43:54;;;;;;;3.42;1.02;;;6.60;99.90;;;;;;6190176;23;20055;-81
2022/04/05 02:46:20;;;;;;;4.25;0.88;;;6.50;99.90;;;;;;6189907;23;20012;-81
2022/04/05 02:48:46;;;;;;;2.78;0.68;;;6.40;99.90;;;;;;6191420;23;20012;-82
2022/04/05 02:51:15;;;;;;;5.20;1.27;;;6.50;99.90;;;;;;6190418;23;20013;-81
2022/04/05 02:53:42;;;;;;;4.68;1.00;;;6.50;99.90;;;;;;6166254;23;20083;-81
2022/04/05 02:56:08;;;;;;;3.83;0.90;;;6.40;99.90;;;;;;6166489;23;20327;-81
2022/04/05 02:58:35;;;;;;;3.17;0.90;;;6.40;99.90;;;;;;6191780;23;20016;-80
2022/04/05 03:01:01;;;;;;;3.88;0.88;;;6.40;99.90;;;;;;6198299;23;20097;-81
2022/04/05 03:03:26;;;;;;;3.53;1.00;;;6.40;99.90;;;;;;6193570;23;20219;-81
2022/04/05 03:05:52;;;;;;;5.50;1.45;;;6.40;99.90;;;;;;6187993;23;20012;-81
2022/04/05 03:08:17;;;;;;;3.75;1.17;;;6.40;99.90;;;;;;6186788;23;20009;-81
2022/04/05 03:10:43;;;;;;;3.17;0.95;;;6.40;99.90;;;;;;6186747;23;20354;-82
2022/04/05 03:13:09;;;;;;;2.15;0.82;;;6.40;99.90;;;;;;6187403;23;20051;-81
2022/04/05 03:15:34;;;;;;;4.78;1.15;;;6.40;99.90;;;;;;6187386;23;20023;-81
2022/04/05 03:18:00;;;;;;;5.07;1.08;;;6.40;99.90;;;;;;6187285;23;20016;-80
2022/04/05 03:20:25;;;;;;;3.05;0.80;;;6.40;99.90;;;;;;6186877;23;20009;-81
2022/04/05 03:22:53;;;;;;;3.38;1.20;;;6.50;99.90;;;;;;6162593;23;20381;-81
2022/04/05 03:25:18;;;;;;;5.25;1.08;;;6.40;99.90;;;;;;6187286;23;20014;-82
2022/04/05 03:27:44;;;;;;;6.65;1.23;;;6.50;99.90;;;;;;6162670;23;20009;-81
2022/04/05 03:30:12;;;;;;;7.38;1.98;;;6.40;99.90;;;;;;6186890;23;20017;-81
2022/04/05 03:32:38;;;;;;;6.07;1.23;;;6.50;99.90;;;;;;6187572;23;20054;-82
2022/04/05 03:35:05;;;;;;;3.67;1.45;;;6.50;99.90;;;;;;6187247;23;20017;-82
2022/04/05 03:37:30;;;;;;;4.00;1.05;;;6.50;99.90;;;;;;6162632;23;20016;-81
2022/04/05 03:39:56;;;;;;;2.85;0.93;;;6.50;99.90;;;;;;6214151;23;20008;-83
2022/04/05 03:42:21;;;;;;;3.83;1.35;;;6.50;99.90;;;;;;6188151;23;20078;-81
2022/04/05 03:44:47;;;;;;;2.10;1.15;;;6.50;99.90;;;;;;6187875;23;20024;-82
2022/04/05 03:47:13;;;;;;;6.35;1.45;;;6.60;99.90;;;;;;6187520;23;20337;-81
2022/04/05 03:49:38;;;;;;;4.45;1.40;;;6.50;99.90;;;;;;6162432;23;20009;-82
2022/04/05 03:52:04;;;;;;;3.00;1.00;;;6.60;99.90;;;;;;6188233;23;20048;-81
2022/04/05 03:54:30;;;;;;;1.67;1.23;;;6.60;99.90;;;;;;6188570;23;20055;-82
2022/04/05 03:56:56;;;;;;;5.38;1.20;;;6.60;99.90;;;;;;6214997;23;20008;-81
2022/04/05 03:59:21;;;;;;;5.78;1.40;;;6.60;99.90;;;;;;6187971;23;20496;-82
2022/04/05 04:01:47;;;;;;;4.22;0.93;;;6.60;99.90;;;;;;6188742;23;20013;-81
2022/04/05 04:04:12;;;;;;;3.00;1.67;;;6.60;99.90;;;;;;6163807;23;20496;-82
2022/04/05 04:06:38;;;;;;;4.15;1.20;;;6.60;99.90;;;;;;6189001;23;20265;-82
2022/04/05 04:09:04;;;;;;;6.07;1.98;;;6.60;99.90;;;;;;6163863;23;20027;-82
2022/04/05 04:11:29;;;;;;;6.25;2.05;;;6.70;99.90;;;;;;6162175;23;20019;-82
2022/04/05 04:13:55;;;;;;;2.65;1.55;;;6.60;99.90;;;;;;6189453;23;20020;-83
2022/04/05 04:16:20;;;;;;;8.43;1.98;;;6.70;99.90;;;;;;6191400;23;20019;-82
2022/04/05 04:18:46;;;;;;;6.40;1.70;;;6.70;99.90;;;;;;6187144;23;20450;-82
2022/04/05 04:21:11;;;;;;;7.97;1.90;;;6.70;99.90;;;;;;6190156;23;20012;-82
2022/04/05 04:23:37;;;;;;;3.55;1.48;;;6.70;99.90;;;;;;6166077;23;20022;-82
2022/04/05 04:26:02;;;;;;;5.43;2.30;;;6.70;99.90;;;;;;6191975;23;20103;-82
2022/04/05 04:28:29;;;;;;;4.18;1.67;;;6.70;99.90;;;;;;6190348;23;20008;-82
2022/04/05 04:30:54;;;;;;;10.18;2.35;;;6.70;99.90;;;;;;6191083;23;20016;-82
2022/04/05 04:33:20;;;;;;;9.00;2.30;;;6.70;99.90;;;;;;6189395;23;20096;-82
2022/04/05 04:35:49;;;;;;;5.45;2.08;;;6.70;99.90;;;;;;6162967;23;20537;-80
2022/04/05 04:38:15;;;;;;;8.63;2.33;;;6.60;99.90;;;;;;6163441;23;20020;-80
2022/04/05 04:40:45;;;;;;;6.38;2.20;;;6.70;99.90;;;;;;6187804;23;20465;-80
2022/04/05 04:43:19;;;;;;;8.05;2.08;;;6.70;99.90;;;;;;6188382;23;20013;-80
2022/04/05 04:45:45;;;;;;;9.35;2.65;;;6.70;99.90;;;;;;6162681;23;20044;-80
2022/04/05 04:48:12;;;;;;;4.18;1.77;;;6.60;99.90;;;;;;6163135;23;20009;-80
2022/04/05 04:50:38;;;;;;;53.10;31.63;;;6.70;99.90;;;;;;6187040;23;20450;-80
2022/04/05 04:53:03;;;;;;;20.05;8.82;;;6.70;99.90;;;;;;6186916;23;20048;-79
2022/04/05 04:55:29;;;;;;;18.08;3.83;;;6.70;99.90;;;;;;6186557;23;20017;-80
2022/04/05 04:57:56;;;;;;;3.63;1.85;;;6.70;99.90;;;;;;6188328;23;20040;-80
2022/04/05 05:00:22;;;;;;;5.35;2.40;;;6.70;99.90;;;;;;6189792;23;20019;-80
2022/04/05 05:02:53;;;;;;;9.27;2.17;;;6.70;99.90;;;;;;6189772;23;20025;-80
2022/04/05 05:05:21;;;;;;;7.30;2.50;;;6.70;99.90;;;;;;6163885;23;20012;-80
2022/04/05 05:07:50;;;;;;;8.63;3.00;;;6.70;99.90;;;;;;6189333;23;20017;-80
2022/04/05 05:10:18;;;;;;;4.82;2.13;;;6.70;99.90;;;;;;6163793;23;20048;-80
2022/04/05 05:12:45;;;;;;;6.15;2.30;;;6.60;99.90;;;;;;6164236;23;20078;-80
2022/04/05 05:15:15;;;;;;;60.85;26.17;;;6.70;99.90;;;;;;6164495;23;20099;-80
2022/04/05 05:17:41;;;;;;;4.38;2.38;;;6.70;99.90;;;;;;6163834;23;20028;-80
2022/04/05 05:20:08;;;;;;;3.95;2.17;;;6.70;99.90;;;;;;6189539;23;20024;-81
2022/04/05 05:22:34;;;;;;;6.30;2.22;;;6.70;99.90;;;;;;6165695;23;20085;-80
2022/04/05 05:25:00;;;;;;;4.63;1.80;;;6.70;99.90;;;;;;6191273;23;20401;-80
2022/04/05 05:27:27;;;;;;;4.03;1.58;;;6.70;99.90;;;;;;6190170;23;20009;-80
2022/04/05 05:29:53;;;;;;;7.25;2.00;;;6.80;99.90;;;;;;6188753;23;20457;-80
2022/04/05 05:32:19;;;;;;;4.15;1.58;;;6.70;99.90;;;;;;6190351;23;20020;-81
2022/04/05 05:34:45;;;;;;;11.38;5.90;;;6.80;99.90;;;;;;6188970;23;20012;-80
2022/04/05 05:37:11;;;;;;;10.25;3.70;;;6.70;99.90;;;;;;6164066;23;20017;-79
2022/04/05 05:39:37;;;;;;;4.03;1.77;;;6.80;99.90;;;;;;6163113;23;20055;-79
2022/04/05 05:42:10;;;;;;;8.95;1.92;;;6.80;99.90;;;;;;6163280;23;20390;-79
2022/04/05 05:44:36;;;;;;;4.95;1.38;;;6.80;99.90;;;;;;6163303;23;20055;-80
2022/04/05 05:47:05;;;;;;;8.50;1.95;;;6.80;99.90;;;;;;6164699;23;20345;-80
2022/04/05 05:49:31;;;;;;;5.90;1.70;;;6.80;99.90;;;;;;6164098;23;20020;-83
2022/04/05 05:51:57;;;;;;;5.88;1.38;;;6.80;99.90;;;;;;6215581;23;20016;-82
2022/04/05 05:54:22;;;;;;;3.75;1.70;;;6.90;99.90;;;;;;6189361;23;20020;-83
2022/04/05 05:56:48;;;;;;;3.72;1.70;;;6.90;99.90;;;;;;6164500;23;20012;-82
2022/04/05 05:59:14;;;;;;;4.82;1.30;;;6.90;99.90;;;;;;6165260;23;20023;-83
2022/04/05 06:01:39;;;;;;;4.53;1.60;;;6.90;99.90;;;;;;6189208;23;20020;-82
2022/04/05 06:04:05;;;;;;;2.92;1.67;;;6.90;99.90;;;;;;6198293;23;20453;-82
2022/04/05 06:06:31;;;;;;;5.95;1.45;;;6.90;99.90;;;;;;6218631;23;20020;-83
2022/04/05 06:08:57;;;;;;;5.45;1.10;;;6.90;99.90;;;;;;6188669;23;20036;-82
2022/04/05 06:11:23;;;;;;;4.22;2.38;;;6.90;99.90;;;;;;6187037;23;20454;-82
2022/04/05 06:13:52;;;;;;;6.00;1.38;;;6.90;99.90;;;;;;6214097;23;20345;-82
2022/04/05 06:16:18;;;;;;;3.05;1.40;;;6.90;99.90;;;;;;6214049;23;20083;-82
2022/04/05 06:18:47;;;;;;;3.15;1.00;;;6.90;99.90;;;;;;6214393;23;20083;-82
2022/04/05 06:21:13;;;;;;;4.85;1.25;;;6.90;99.90;;;;;;6215123;23;20012;-83
2022/04/05 06:23:39;;;;;;;5.05;1.00;;;6.90;99.90;;;;;;6216024;23;20450;-83
2022/04/05 06:26:05;;;;;;;4.05;1.20;;;6.90;99.90;;;;;;6216719;23;20008;-83
2022/04/05 06:28:31;;;;;;;2.35;0.90;;;7.00;99.90;;;;;;6217284;23;20013;-82
2022/04/05 06:30:57;;;;;;;5.90;1.15;;;7.00;99.90;;;;;;6188671;23;20370;-83
2022/04/05 06:33:22;;;;;;;3.05;0.75;;;7.00;99.90;;;;;;6187606;23;20015;-83
2022/04/05 06:35:51;;;;;;;3.88;0.70;;;7.00;99.90;;;;;;6187684;23;20100;-83
2022/04/05 06:38:17;;;;;;;2.05;1.08;;;7.00;99.90;;;;;;6164641;23;20086;-82
2022/04/05 06:40:43;;;;;;;4.35;1.35;;;7.10;99.90;;;;;;6163279;23;20412;-83
2022/04/05 06:43:11;;;;;;;2.70;0.80;;;7.20;99.90;;;;;;6188741;23;20512;-83
2022/04/05 06:45:37;;;;;;;3.15;0.90;;;7.10;99.90;;;;;;6162699;23;20008;-83
2022/04/05 06:48:03;;;;;;;3.10;0.70;;;7.20;99.90;;;;;;6189758;23;20047;-83
2022/04/05 06:50:29;;;;;;;2.58;0.70;;;7.30;99.90;;;;;;6162630;23;20377;-83
2022/04/05 06:52:57;;;;;;;1.85;0.80;;;7.30;99.90;;;;;;6162914;23;20035;-84
2022/04/05 06:55:23;;;;;;;2.88;1.60;;;7.30;99.90;;;;;;6187931;23;20012;-83
2022/04/05 06:57:49;;;;;;;2.47;1.33;;;7.30;99.90;;;;;;6162956;23;20342;-83
2022/04/05 07:00:17;;;;;;;3.17;1.33;;;7.40;99.90;;;;;;6187576;23;20031;-83
2022/04/05 07:02:43;;;;;;;7.57;1.80;;;7.40;99.90;;;;;;6164617;23;20004;-83
2022/04/05 07:05:09;;;;;;;3.42;0.57;;;7.40;99.90;;;;;;6164621;23;20051;-83
2022/04/05 07:07:36;;;;;;;2.35;0.60;;;7.50;99.90;;;;;;6192455;23;20083;-83
2022/04/05 07:10:02;;;;;;;1.13;0.60;;;7.50;99.90;;;;;;6166934;23;20092;-84
2022/04/05 07:12:28;;;;;;;3.35;0.68;;;7.50;99.90;;;;;;6167756;23;20020;-84
2022/04/05 07:14:53;;;;;;;0.52;0.40;;;7.50;99.90;;;;;;6191865;23;20052;-83
2022/04/05 07:17:19;;;;;;;3.03;1.00;;;7.50;99.90;;;;;;6167238;23;20017;-83
2022/04/05 07:19:45;;;;;;;3.20;0.50;;;7.50;99.90;;;;;;6166139;23;20052;-83
2022/04/05 07:22:11;;;;;;;2.78;0.60;;;7.60;99.90;;;;;;6189038;23;20015;-84
2022/04/05 07:24:36;;;;;;;2.22;0.80;;;7.50;99.90;;;;;;6189665;23;20008;-84
2022/04/05 07:27:02;;;;;;;1.95;0.70;;;7.40;99.90;;;;;;6163551;23;20016;-83
2022/04/05 07:29:27;;;;;;;1.33;0.50;;;7.50;99.90;;;;;;6190023;23;20016;-83
2022/04/05 07:31:53;;;;;;;3.03;0.88;;;7.60;99.90;;;;;;6190297;23;20442;-83
2022/04/05 07:34:18;;;;;;;0.50;0.50;;;7.60;99.90;;;;;;6217644;23;20015;-84
2022/04/05 07:36:44;;;;;;;0.82;0.70;;;7.60;99.90;;;;;;6198225;23;20021;-83
2022/04/05 07:39:10;;;;;;;0.95;0.63;;;7.60;99.90;;;;;;6216563;23;20008;-83
2022/04/05 07:41:35;;;;;;;2.80;0.80;;;7.70;99.90;;;;;;6188188;23;20028;-83
2022/04/05 07:44:01;;;;;;;2.10;0.50;;;7.70;99.90;;;;;;6213421;23;20005;-83
2022/04/05 07:46:27;;;;;;;1.27;0.60;;;7.80;99.90;;;;;;6186379;23;20012;-83
2022/04/05 07:48:53;;;;;;;5.05;0.70;;;7.80;99.90;;;;;;6213352;23;20012;-83
2022/04/05 07:51:18;;;;;;;2.45;0.65;;;7.90;99.90;;;;;;6161317;23;20027;-82
2022/04/05 07:53:44;;;;;;;1.90;0.55;;;7.90;99.90;;;;;;6186277;23;20016;-83
2022/04/05 07:56:12;;;;;;;3.80;0.70;;;7.90;99.90;;;;;;6186647;23;20451;-83
2022/04/05 07:58:39;;;;;;;0.65;0.60;;;7.90;99.90;;;;;;6186405;23;20016;-83
2022/04/05 08:01:05;;;;;;;2.70;0.60;;;7.90;99.90;;;;;;6186039;23;20533;-83
2022/04/05 08:03:30;;;;;;;1.27;0.55;;;8.00;99.90;;;;;;6186907;23;20050;-83
2022/04/05 08:05:56;;;;;;;0.60;0.60;;;8.00;99.90;;;;;;6161846;23;20009;-83
2022/04/05 08:08:22;;;;;;;1.30;0.40;;;8.00;99.90;;;;;;6162050;23;20019;-83
2022/04/05 08:10:47;;;;;;;0.60;0.55;;;8.00;99.90;;;;;;6161359;23;20095;-84
2022/04/05 08:13:13;;;;;;;1.27;0.82;;;8.00;99.90;;;;;;6186265;23;20087;-83
2022/04/05 08:15:41;;;;;;;1.67;0.70;;;8.00;99.90;;;;;;6213810;23;20083;-83
2022/04/05 08:18:08;;;;;;;2.45;0.52;;;8.00;99.90;;;;;;6186463;23;20537;-83
2022/04/05 08:20:36;;;;;;;1.08;0.40;;;8.00;99.90;;;;;;6186201;23;20275;-83
2022/04/05 08:23:04;;;;;;;0.73;0.40;;;8.10;99.90;;;;;;6189078;23;20087;-83
2022/04/05 08:25:30;;;;;;;0.50;0.45;;;8.10;99.90;;;;;;6163694;23;20005;-84
2022/04/05 08:27:57;;;;;;;0.85;0.85;;;8.10;99.90;;;;;;6163520;23;20430;-83
2022/04/05 08:30:22;;;;;;;0.68;0.50;;;8.10;99.90;;;;;;6186468;23;20009;-83
2022/04/05 08:32:48;;;;;;;0.65;0.40;;;8.20;99.90;;;;;;6187438;23;20480;-83
2022/04/05 08:35:17;;;;;;;0.57;0.50;;;8.20;99.90;;;;;;6162988;23;20223;-84
2022/04/05 08:37:44;;;;;;;0.30;0.30;;;8.20;99.90;;;;;;6190564;23;20012;-84
2022/04/05 08:40:12;;;;;;;0.73;0.55;;;8.30;99.90;;;;;;6189350;23;20028;-83
2022/04/05 08:42:41;;;;;;;0.68;0.50;;;8.30;99.90;;;;;;6188508;23;20009;-83
2022/04/05 08:45:10;;;;;;;0.82;0.52;;;8.40;99.90;;;;;;6187554;23;20032;-83
2022/04/05 08:47:40;;;;;;;0.50;0.45;;;8.40;99.90;;;;;;6187219;23;20012;-83
2022/04/05 08:50:06;;;;;;;0.40;0.40;;;8.50;99.90;;;;;;6162181;23;20407;-83
2022/04/05 08:52:34;;;;;;;0.50;0.20;;;8.60;99.90;;;;;;6187474;23;20092;-83
2022/04/05 08:55:00;;;;;;;0.68;0.40;;;8.60;99.90;;;;;;6187257;23;20525;-83
2022/04/05 08:57:26;;;;;;;1.38;0.22;;;8.60;99.90;;;;;;6164084;23;20461;-82
2022/04/05 08:59:52;;;;;;;0.30;0.30;;;8.60;99.90;;;;;;6188830;23;20020;-83
2022/04/05 09:02:27;;;;;;;0.40;0.40;;;8.60;99.90;;;;;;6215116;23;20012;-83
2022/04/05 09:04:53;;;;;;;0.38;0.30;;;8.60;99.90;;;;;;6198480;23;20013;-83
2022/04/05 09:07:18;;;;;;;0.30;0.30;;;8.70;99.90;;;;;;6169769;23;20070;-83
2022/04/05 09:09:44;;;;;;;1.17;0.28;;;8.70;99.90;;;;;;6191300;23;20421;-82
2022/04/05 09:12:17;;;;;;;0.50;0.30;;;8.80;99.90;;;;;;6185896;23;20016;-83
2022/04/05 09:14:42;;;;;;;1.40;1.30;;;8.80;99.90;;;;;;6186889;23;20013;-82
2022/04/05 09:58:11;;;;;;;5.45;2.30;;;9.20;99.90;;;;;;6215169;23;20107;-79
2022/04/05 10:00:37;;;;;;;4.22;2.58;;;9.30;99.90;;;;;;6213364;23;20087;-79
2022/04/05 10:03:05;;;;;;;3.65;2.35;;;9.40;99.90;;;;;;6213552;23;20086;-79
2022/04/05 10:05:32;;;;;;;3.05;1.95;;;9.50;99.90;;;;;;6214335;23;20008;-79
2022/04/05 10:07:59;;;;;;;4.32;2.53;;;9.50;99.90;;;;;;6187316;23;20013;-79
2022/04/05 10:10:25;;;;;;;4.88;2.70;;;9.40;99.90;;;;;;6183558;23;20055;-79
2022/04/05 10:12:52;;;;;;;4.90;2.88;;;9.50;99.90;;;;;;6183642;23;20040;-79
2022/04/05 10:15:21;;;;;;;5.07;3.25;;;9.50;99.90;;;;;;6185495;23;20455;-79
2022/04/05 10:17:48;;;;;;;6.07;3.42;;;9.50;99.90;;;;;;6184235;23;20013;-78
2022/04/05 10:20:17;;;;;;;5.55;3.55;;;9.60;99.90;;;;;;6183666;23;20098;-78
2022/04/05 10:22:43;;;;;;;4.97;3.20;;;9.70;99.90;;;;;;6184160;23;20087;-78
2022/04/05 10:25:10;;;;;;;8.85;3.88;;;9.70;99.90;;;;;;6184500;23;20083;-79
2022/04/05 10:27:36;;;;;;;8.10;4.95;;;9.80;99.90;;;;;;6184877;23;20490;-79
2022/04/05 10:30:07;;;;;;;6.80;3.38;;;9.90;99.90;;;;;;6183259;23;20017;-80
2022/04/05 10:33:13;;;;;;;7.13;3.60;;;9.90;99.90;;;;;;6183714;23;20414;-79
2022/04/05 10:35:53;;;;;;;6.30;3.90;;;9.90;99.90;;;;;;6158674;23;20339;-79
2022/04/05 10:38:20;;;;;;;5.75;3.70;;;10.00;99.90;;;;;;6182705;23;20016;-79
2022/04/05 10:41:10;;;;;;;5.60;3.15;;;10.00;99.90;;;;;;6182499;23;20396;-78
2022/04/05 10:43:38;;;;;;;7.65;3.60;;;10.00;99.90;;;;;;6182592;23;20009;-79
2022/04/05 10:46:05;;;;;;;4.72;2.80;;;10.10;99.90;;;;;;6182291;23;20017;-79
2022/04/05 10:48:31;;;;;;;4.07;2.70;;;10.10;99.90;;;;;;6157611;23;20442;-79
2022/04/05 10:51:00;;;;;;;4.18;2.78;;;10.30;99.90;;;;;;6183559;23;20023;-78
2022/04/05 10:53:40;;;;;;;4.20;2.95;;;10.30;99.90;;;;;;6182527;23;20328;-79
2022/04/05 10:56:10;;;;;;;4.60;2.80;;;10.60;99.90;;;;;;6182464;23;20013;-79
2022/04/05 10:58:39;;;;;;;3.75;2.47;;;10.70;99.90;;;;;;6182042;23;20469;-78
2022/04/05 11:01:21;;;;;;;3.67;2.03;;;10.80;99.90;;;;;;6181828;23;20446;-78
2022/04/05 11:04:29;;;;;;;4.18;2.65;;;10.90;99.90;;;;;;6182916;23;20092;-83
2022/04/05 11:07:06;;;;;;;3.83;2.10;;;10.90;99.90;;;;;;6184025;23;20009;-81
2022/04/05 11:09:41;;;;;;;3.85;1.83;;;10.90;99.90;;;;;;6160539;23;20019;-81
2022/04/05 11:12:25;;;;;;;3.22;2.13;;;10.80;99.90;;;;;;6183095;23;20005;-82
2022/04/05 11:14:52;;;;;;;3.00;1.90;;;10.80;99.90;;;;;;6183299;23;20009;-81
2022/04/05 11:17:55;;;;;;;5.22;2.50;;;10.80;99.90;;;;;;6148689;23;20025;-82
2022/04/05 11:28:16;;;;;;;4.15;2.35;;;11.30;99.90;;;;;;6216940;22;20488;-83
2022/04/05 11:34:46;;;;;;;3.05;2.28;;;11.70;99.90;;;;;;6244641;22;20023;-81
2022/04/05 11:37:51;;;;;;;;;;;;;;;;;;;;;
2022/04/05 11:40:52;;;;;;;5.72;2.90;;;11.90;99.90;;;;;;6091436;23;20361;-81
2022/04/05 11:44:01;;;;;;;3.33;2.40;;;11.80;99.90;;;;;;6043921;23;20097;-83
2022/04/05 12:01:47;;;;;;;;;;;;;;;;;;;;;
2022/04/05 12:16:40;;;;;;;5.25;2.92;;;11.30;99.90;;;;;;6152180;23;20021;-83
2022/04/05 12:30:00;;;;;;;10.45;2.90;;;11.30;99.90;;;;;;6226821;23;20025;-83
2022/04/05 12:39:06;;;;;;;6.32;2.35;;;11.30;99.90;;;;;;6212962;23;20032;-83
2022/04/05 12:45:37;;;;;;;5.15;3.40;;;11.20;99.90;;;;;;6149692;23;20036;-84
2022/04/05 12:55:14;;;;;;;8.57;3.65;;;11.00;99.90;;;;;;6062147;23;20030;-82
2022/04/05 12:57:47;;;;;;;12.82;4.65;;;11.00;99.90;;;;;;6014685;23;20389;-83
2022/04/05 13:00:38;;;;;;;;;;;10.90;99.90;;;;;;6015057;23;20094;-83
2022/04/05 13:15:54;;;;;;;;;;;;;;;;;;;;;
2022/04/05 13:19:09;;;;;;;8.17;4.20;;;10.70;99.90;;;;;;6120374;23;20060;-84
2022/04/05 13:22:27;;;;;;;;;;;;;;;;;;;;;
2022/04/05 13:43:09;;;;;;;10.88;4.40;;;10.40;99.90;;;;;;6183254;23;20484;-83
2022/04/05 13:46:13;;;;;;;7.03;4.10;;;10.50;99.90;;;;;;6158955;23;20013;-83
2022/04/05 13:48:57;;;;;;;9.80;3.22;;;10.50;99.90;;;;;;6045373;23;20246;-83
2022/04/05 13:55:32;;;;;;;10.13;3.88;;;10.50;99.90;;;;;;6052308;23;20061;-83
2022/04/05 14:02:31;;;;;;;7.97;3.75;;;10.40;99.90;;;;;;6040139;23;20502;-82
2022/04/05 14:08:02;;;;;;;8.80;3.65;;;10.30;99.90;;;;;;6214379;23;20082;-82
2022/04/05 14:13:35;;;;;;;15.07;4.93;;;10.20;99.90;;;;;;6213718;23;20028;-83
2022/04/05 14:16:01;;;;;;;10.45;4.15;;;10.30;99.90;;;;;;6189003;23;20035;-83
2022/04/05 14:25:57;;;;;;;12.43;4.95;;;10.30;99.90;;;;;;6213235;23;20052;-82
2022/04/05 14:28:34;;;;;;;;;;;10.30;99.90;;;;;;6190462;23;20020;-83
2022/04/05 14:31:10;;;;;;;12.95;4.35;;;10.30;99.90;;;;;;6188857;23;19912;-83
2022/04/05 14:33:48;;;;;;;18.63;4.97;;;10.40;99.90;;;;;;6214498;23;20039;-83
2022/04/05 14:36:29;;;;;;;10.40;4.72;;;10.40;99.90;;;;;;6189149;23;20012;-83
2022/04/05 14:39:16;;;;;;;15.55;4.72;;;10.50;99.90;;;;;;6188149;23;20071;-83
2022/04/05 14:41:41;;;;;;;14.25;6.38;;;10.60;99.90;;;;;;6213632;23;20063;-82
2022/04/05 14:44:26;;;;;;;12.52;5.05;;;10.60;99.90;;;;;;6190046;23;20364;-83
2022/04/05 14:47:20;;;;;;;14.07;5.63;;;10.60;99.90;;;;;;6188378;23;20063;-83
2022/04/05 14:50:06;;;;;;;10.40;4.53;;;10.60;99.90;;;;;;6213356;23;20394;-83
2022/04/05 14:52:42;;;;;;;13.95;5.75;;;10.70;99.90;;;;;;6190815;23;20513;-83
2022/04/05 15:02:32;;;;;;;11.10;4.57;;;10.70;99.90;;;;;;6042347;23;20353;-82
2022/04/05 15:04:58;;;;;;;13.02;4.60;;;10.70;99.90;;;;;;6128004;23;20017;-81
2022/04/05 15:07:23;;;;;;;11.15;4.15;;;10.70;99.90;;;;;;6201410;23;20023;-82
2022/04/05 15:09:50;;;;;;;9.25;4.28;;;10.80;99.90;;;;;;6217315;23;20456;-82
2022/04/05 15:12:20;;;;;;;12.82;4.72;;;10.70;99.90;;;;;;6216441;23;20009;-81
2022/04/05 15:14:46;;;;;;;10.50;4.03;;;10.80;99.90;;;;;;6191185;23;20051;-82
2022/04/05 15:17:12;;;;;;;9.95;4.28;;;10.80;99.90;;;;;;6193381;23;20023;-81
2022/04/05 15:19:37;;;;;;;8.93;4.25;;;10.80;99.90;;;;;;6190730;23;20381;-81
2022/04/05 15:22:04;;;;;;;9.23;4.35;;;10.80;99.90;;;;;;6216008;23;20023;-82
2022/04/05 15:24:29;;;;;;;9.88;3.72;;;10.80;99.90;;;;;;6215452;23;20012;-82
2022/04/05 15:26:56;;;;;;;10.38;3.65;;;10.70;99.90;;;;;;6189147;23;20013;-82
2022/04/05 15:29:36;;;;;;;8.27;4.20;;;10.70;99.90;;;;;;6190483;23;20012;-82
2022/04/05 15:32:06;;;;;;;11.85;5.20;;;10.60;99.90;;;;;;6216805;23;20027;-82
2022/04/05 15:34:32;;;;;;;9.40;5.00;;;10.60;99.90;;;;;;6218024;23;20016;-82
2022/04/05 15:36:58;;;;;;;9.43;4.78;;;10.60;99.90;;;;;;6215499;23;20096;-81
2022/04/05 15:39:24;;;;;;;8.95;4.07;;;10.50;99.90;;;;;;6205470;23;20067;-82
2022/04/05 15:42:34;;;;;;;9.43;4.30;;;10.50;99.90;;;;;;6232355;23;20047;-83
2022/04/05 15:45:00;;;;;;;12.77;4.07;;;10.40;99.90;;;;;;6159236;23;20566;-82
2022/04/05 15:47:26;;;;;;;9.07;3.92;;;10.40;99.90;;;;;;6187255;23;20095;-82
2022/04/05 15:50:00;;;;;;;7.70;4.65;;;10.40;99.90;;;;;;6215866;23;20019;-83
2022/04/05 15:52:26;;;;;;;16.23;3.92;;;10.30;99.90;;;;;;6191243;23;20013;-83
2022/04/05 15:54:54;;;;;;;13.40;4.53;;;10.30;99.90;;;;;;6212484;23;20051;-83